sensor_id;sensor_type;location;lat;lon;timestamp;temperature;humidity
16116;DHT22;8162;47.104;15.432;2023-11-21T11:45:36;9.40;88.70
16116;DHT22;8162;47.104;15.432;2023-11-21T11:48:41;9.10;88.70
16116;DHT22;8162;47.104;15.432;2023-11-21T11:51:42;9.10;87.20
16116;DHT22;8162;47.104;15.432;2023-11-21T11:54:43;9.00;87.40
16116;DHT22;8162;47.104;15.432;2023-11-21T11:57:46;9.00;87.80
16116;DHT22;8162;47.104;15.432;2023-11-21T12:00:50;9.10;87.70
16116;DHT22;8162;47.104;15.432;2023-11-21T12:07:17;9.20;87.80
16116;DHT22;8162;47.104;15.432;2023-11-21T12:10:20;9.20;87.30
16116;DHT22;8162;47.104;15.432;2023-11-21T12:13:21;9.20;87.60
16116;DHT22;8162;47.104;15.432;2023-11-21T12:16:24;9.20;87.60
16116;DHT22;8162;47.104;15.432;2023-11-21T12:19:27;9.20;86.90
16116;DHT22;8162;47.104;15.432;2023-11-21T12:22:28;9.30;87.20
16116;DHT22;8162;47.104;15.432;2023-11-21T22:21:38;9.40;86.20
16116;DHT22;8162;47.104;15.432;2023-11-21T22:24:39;5.40;94.10
16116;DHT22;8162;47.104;15.432;2023-11-21T22:27:41;5.40;94.20
16116;DHT22;8162;47.104;15.432;2023-11-21T22:30:41;5.30;93.90
16116;DHT22;8162;47.104;15.432;2023-11-21T22:33:42;5.30;93.50
16116;DHT22;8162;47.104;15.432;2023-11-21T22:36:43;5.30;93.30
16116;DHT22;8162;47.104;15.432;2023-11-21T22:39:44;5.20;94.50
16116;DHT22;8162;47.104;15.432;2023-11-21T22:42:46;5.20;94.40
16116;DHT22;8162;47.104;15.432;2023-11-21T22:45:47;5.20;93.50
16116;DHT22;8162;47.104;15.432;2023-11-21T22:48:48;5.20;93.90
16116;DHT22;8162;47.104;15.432;2023-11-21T22:51:49;5.10;93.50
16116;DHT22;8162;47.104;15.432;2023-11-21T22:54:50;5.00;93.00
16116;DHT22;8162;47.104;15.432;2023-11-21T22:57:51;4.90;92.70
16116;DHT22;8162;47.104;15.432;2023-11-21T23:00:52;4.90;93.20
16116;DHT22;8162;47.104;15.432;2023-11-21T23:03:57;4.90;92.80
16116;DHT22;8162;47.104;15.432;2023-11-21T23:06:58;4.80;93.30
16116;DHT22;8162;47.104;15.432;2023-11-21T23:09:59;4.80;93.70
16116;DHT22;8162;47.104;15.432;2023-11-21T23:12:59;4.70;93.60
16116;DHT22;8162;47.104;15.432;2023-11-21T23:16:00;4.70;93.80
16116;DHT22;8162;47.104;15.432;2023-11-21T23:19:01;4.70;94.00
16116;DHT22;8162;47.104;15.432;2023-11-21T23:22:02;4.70;94.30
16116;DHT22;8162;47.104;15.432;2023-11-21T23:25:03;4.70;93.80
16116;DHT22;8162;47.104;15.432;2023-11-21T23:28:04;4.70;93.60
16116;DHT22;8162;47.104;15.432;2023-11-21T23:31:05;4.70;93.80
16116;DHT22;8162;47.104;15.432;2023-11-21T23:34:05;4.60;94.00
16116;DHT22;8162;47.104;15.432;2023-11-21T23:37:10;4.60;93.30
16116;DHT22;8162;47.104;15.432;2023-11-21T23:40:10;4.60;93.30
16116;DHT22;8162;47.104;15.432;2023-11-21T23:43:12;4.50;94.00
16116;DHT22;8162;47.104;15.432;2023-11-21T23:46:14;4.60;93.40
16116;DHT22;8162;47.104;15.432;2023-11-21T23:49:14;4.50;92.50
16116;DHT22;8162;47.104;15.432;2023-11-21T23:52:15;4.50;92.30
16116;DHT22;8162;47.104;15.432;2023-11-21T23:55:16;4.50;92.60
16116;DHT22;8162;47.104;15.432;2023-11-21T23:58:17;4.40;92.80
